Time;durP1;ratioP1;P1;durP2;ratioP2;P2;SDS_P1;SDS_P2;PMS_P1;PMS_P2;Temp;Humidity;BMP_temperature;BMP_pressure;BME280_temperature;BME280_humidity;BME280_pressure;Samples;Min_cycle;Max_cycle;Signal;HPM_P1;HPM_P2
2023/01/09 00:00:49;;;;;;;;;;;;;;;;;;4973615;28;1992;-39
2023/01/09 00:03:16;;;;;;;;;;;;;;;;;;4973291;28;1917;-39
2023/01/09 00:05:43;;;;;;;;;;;;;;;;;;4973368;28;1525;-39
2023/01/09 00:08:10;;;;;;;;;;;;;;;;;;4972005;28;1944;-40
2023/01/09 00:10:38;;;;;;;;;;;;;;;;;;4973305;28;1521;-39
2023/01/09 00:13:05;;;;;;;;;;;;;;;;;;4973473;28;1612;-39
2023/01/09 00:15:32;;;;;;;;;;;;;;;;;;4973241;28;2163;-40
2023/01/09 00:17:59;;;;;;;;;;;;;;;;;;4973076;28;1700;-40
2023/01/09 00:20:26;;;;;;;;;;;;;;;;;;4973301;28;1647;-40
2023/01/09 00:22:53;;;;;;;;;;;;;;;;;;4973339;28;2194;-39
2023/01/09 00:25:21;;;;;;;;;;;;;;;;;;4972952;28;2055;-39
2023/01/09 00:27:48;;;;;;;;;;;;;;;;;;4973179;28;1576;-40
2023/01/09 00:30:15;;;;;;;;;;;;;;;;;;4972837;28;1847;-39
2023/01/09 00:32:43;;;;;;;;;;;;;;;;;;4972978;28;2144;-40
2023/01/09 00:35:12;;;;;;;;;;;;;;;;;;4972831;28;1472;-39
2023/01/09 00:37:39;;;;;;;;;;;;;;;;;;4972721;28;1804;-39
2023/01/09 00:40:07;;;;;;;;;;;;;;;;;;4972957;28;1632;-40
2023/01/09 00:42:35;;;;;;;;;;;;;;;;;;4971942;28;1563;-40
2023/01/09 00:45:08;;;;;;;;;;;;;;;;;;4972635;28;1906;-40
2023/01/09 00:47:37;;;;;;;;;;;;;;;;;;4972274;28;1583;-40
2023/01/09 00:50:07;;;;;;;;;;;;;;;;;;4972665;28;1888;-40
2023/01/09 00:52:36;;;;;;;;;;;;;;;;;;4972571;28;1519;-40
2023/01/09 00:55:04;;;;;;;;;;;;;;;;;;4972313;28;1827;-40
2023/01/09 00:57:31;;;;;;;;;;;;;;;;;;4972564;28;1567;-40
2023/01/09 00:59:59;;;;;;;;;;;;;;;;;;4972629;28;2236;-39
2023/01/09 01:02:26;;;;;;;;;;;;;;;;;;4973080;28;1860;-40
2023/01/09 01:07:40;;;;;;;;;;;;;;;;;;4972487;28;2254;-39
2023/01/09 01:10:12;;;;;;;;;;;;;;;;;;4972297;28;1498;-40
2023/01/09 01:12:39;;;;;;;;;;;;;;;;;;4972180;28;2026;-39
2023/01/09 01:15:07;;;;;;;;;;;;;;;;;;4971146;28;1490;-40
2023/01/09 01:17:35;;;;;;;;;;;;;;;;;;4972290;28;1812;-40
2023/01/09 01:20:07;;;;;;;;;;;;;;;;;;4972419;28;2026;-39
2023/01/09 01:22:34;;;;;;;;;;;;;;;;;;4972172;28;1746;-39
2023/01/09 01:25:02;;;;;;;;;;;;;;;;;;4972545;28;1983;-40
2023/01/09 01:27:29;;;;;;;;;;;;;;;;;;4972383;28;1380;-40
2023/01/09 01:29:57;;;;;;;;;;;;;;;;;;4972277;28;1855;-39
2023/01/09 01:32:24;;;;;;;;;;;;;;;;;;4972614;28;1722;-40
2023/01/09 01:34:51;;;;;;;;;;;;;;;;;;4972179;28;1555;-39
2023/01/09 01:37:20;;;;;;;;;;;;;;;;;;4972159;28;1768;-39
2023/01/09 01:39:47;;;;;;;;;;;;;;;;;;4972258;28;1676;-39
2023/01/09 01:42:15;;;;;;;;;;;;;;;;;;4972046;28;2191;-39
2023/01/09 01:44:59;;;;;;;;;;;;;;;;;;4971852;28;1924;-39
2023/01/09 01:47:45;;;;;;;;;;;;;;;;;;4971897;28;1521;-39
2023/01/09 01:50:28;;;;;;;;;;;;;;;;;;4971761;28;1821;-40
2023/01/09 01:53:00;;;;;;;;;;;;;;;;;;4973954;28;1488;-39
2023/01/09 01:55:27;;;;;;;;;;;;;;;;;;4975871;28;2209;-39
2023/01/09 01:57:58;;;;;;;;;;;;;;;;;;4975830;28;1284;-40
2023/01/09 02:00:29;;;;;;;;;;;;;;;;;;4975643;28;2007;-39
2023/01/09 02:02:56;;;;;;;;;;;;;;;;;;4974365;28;1603;-39
2023/01/09 02:05:23;;;;;;;;;;;;;;;;;;4975658;28;1985;-39
2023/01/09 02:07:51;;;;;;;;;;;;;;;;;;4975611;28;1997;-39
2023/01/09 02:10:22;;;;;;;;;;;;;;;;;;4975612;28;1325;-39
2023/01/09 02:12:49;;;;;;;;;;;;;;;;;;4975516;28;2077;-39
2023/01/09 02:15:17;;;;;;;;;;;;;;;;;;4975486;28;2059;-39
2023/01/09 02:17:54;;;;;;;;;;;;;;;;;;4975696;28;2023;-39
2023/01/09 02:20:33;;;;;;;;;;;;;;;;;;4975402;28;1583;-39
2023/01/09 02:23:19;;;;;;;;;;;;;;;;;;4975330;28;2100;-39
2023/01/09 02:26:11;;;;;;;;;;;;;;;;;;4975091;28;1975;-39
2023/01/09 02:28:52;;;;;;;;;;;;;;;;;;4957555;28;1407;-40
2023/01/09 02:31:30;;;;;;;;;;;;;;;;;;4975256;28;2042;-39
2023/01/09 02:33:57;;;;;;;;;;;;;;;;;;4974957;28;1733;-39
2023/01/09 02:36:27;;;;;;;;;;;;;;;;;;4974023;28;2149;-39
2023/01/09 02:39:03;;;;;;;;;;;;;;;;;;4975020;28;1477;-41
2023/01/09 02:41:36;;;;;;;;;;;;;;;;;;4975085;28;1727;-39
2023/01/09 02:44:17;;;;;;;;;;;;;;;;;;4974911;28;1912;-39
2023/01/09 02:46:44;;;;;;;;;;;;;;;;;;4974831;28;1878;-39
2023/01/09 02:49:12;;;;;;;;;;;;;;;;;;4974829;28;1543;-40
2023/01/09 02:51:53;;;;;;;;;;;;;;;;;;4974697;28;1963;-39
2023/01/09 02:54:29;;;;;;;;;;;;;;;;;;4974756;28;1795;-39
2023/01/09 02:57:18;;;;;;;;;;;;;;;;;;4974718;28;1810;-39
2023/01/09 02:59:52;;;;;;;;;;;;;;;;;;4974296;28;2121;-39
2023/01/09 03:02:28;;;;;;;;;;;;;;;;;;4974660;28;2092;-40
2023/01/09 03:05:15;;;;;;;;;;;;;;;;;;4973643;28;1989;-39
2023/01/09 03:07:47;;;;;;;;;;;;;;;;;;4974258;28;1923;-39
2023/01/09 03:10:24;;;;;;;;;;;;;;;;;;4974466;28;1809;-40
2023/01/09 03:12:52;;;;;;;;;;;;;;;;;;4974887;28;1711;-39
2023/01/09 03:15:21;;;;;;;;;;;;;;;;;;4974294;28;1999;-39
2023/01/09 03:17:49;;;;;;;;;;;;;;;;;;4974286;28;1305;-38
2023/01/09 03:20:20;;;;;;;;;;;;;;;;;;4957319;28;1927;-39
2023/01/09 03:23:06;;;;;;;;;;;;;;;;;;4974396;28;1861;-40
2023/01/09 03:25:33;;;;;;;;;;;;;;;;;;4973914;28;2279;-39
2023/01/09 03:28:05;;;;;;;;;;;;;;;;;;4973910;28;1650;-39
2023/01/09 03:30:33;;;;;;;;;;;;;;;;;;4974034;28;2152;-39
2023/01/09 03:33:00;;;;;;;;;;;;;;;;;;4974094;28;1630;-39
2023/01/09 03:35:28;;;;;;;;;;;;;;;;;;4974004;28;1659;-40
2023/01/09 03:37:55;;;;;;;;;;;;;;;;;;4973892;28;1763;-40
2023/01/09 03:40:22;;;;;;;;;;;;;;;;;;4974124;28;1700;-40
2023/01/09 03:42:49;;;;;;;;;;;;;;;;;;4973898;28;1959;-39
2023/01/09 03:45:16;;;;;;;;;;;;;;;;;;4973801;28;1910;-40
2023/01/09 03:47:43;;;;;;;;;;;;;;;;;;4973925;28;1759;-39
2023/01/09 03:50:11;;;;;;;;;;;;;;;;;;4973772;28;1862;-39
2023/01/09 03:52:40;;;;;;;;;;;;;;;;;;4973930;28;1381;-39
2023/01/09 03:55:07;;;;;;;;;;;;;;;;;;4973852;28;2343;-39
2023/01/09 03:57:34;;;;;;;;;;;;;;;;;;4973588;28;2230;-40
2023/01/09 04:00:02;;;;;;;;;;;;;;;;;;4973877;28;1758;-39
2023/01/09 04:02:37;;;;;;;;;;;;;;;;;;4973562;28;1815;-39
2023/01/09 04:05:06;;;;;;;;;;;;;;;;;;4973389;28;2094;-39
2023/01/09 04:07:33;;;;;;;;;;;;;;;;;;4973040;28;2323;-40
2023/01/09 04:10:00;;;;;;;;;;;;;;;;;;4973270;28;2160;-39
2023/01/09 04:12:27;;;;;;;;;;;;;;;;;;4973341;28;1286;-39
2023/01/09 04:14:55;;;;;;;;;;;;;;;;;;4973216;28;1828;-39
2023/01/09 04:17:22;;;;;;;;;;;;;;;;;;4971064;28;1938;-39
2023/01/09 04:19:49;;;;;;;;;;;;;;;;;;4973184;28;1788;-39
2023/01/09 04:22:19;;;;;;;;;;;;;;;;;;4972969;28;1958;-39
2023/01/09 04:24:46;;;;;;;;;;;;;;;;;;4972852;28;1916;-39
2023/01/09 04:27:13;;;;;;;;;;;;;;;;;;4972187;28;2236;-39
2023/01/09 04:29:40;;;;;;;;;;;;;;;;;;4973169;28;1847;-39
2023/01/09 04:32:07;;;;;;;;;;;;;;;;;;4973099;28;1529;-39
2023/01/09 04:34:35;;;;;;;;;;;;;;;;;;4972750;28;1930;-39
2023/01/09 04:37:02;;;;;;;;;;;;;;;;;;4972740;28;1453;-39
2023/01/09 04:39:29;;;;;;;;;;;;;;;;;;4972991;28;1671;-40
2023/01/09 04:41:56;;;;;;;;;;;;;;;;;;4972997;28;2328;-39
2023/01/09 04:44:27;;;;;;;;;;;;;;;;;;4972659;28;2015;-38
2023/01/09 04:46:55;;;;;;;;;;;;;;;;;;4972667;28;1966;-39
2023/01/09 04:49:22;;;;;;;;;;;;;;;;;;4972719;28;1427;-40
2023/01/09 04:51:50;;;;;;;;;;;;;;;;;;4972633;28;1574;-39
2023/01/09 04:54:17;;;;;;;;;;;;;;;;;;4972771;28;2195;-40
2023/01/09 04:56:44;;;;;;;;;;;;;;;;;;4973077;28;2036;-39
2023/01/09 04:59:12;;;;;;;;;;;;;;;;;;4971321;28;1395;-39
2023/01/09 05:01:39;;;;;;;;;;;;;;;;;;4972598;28;1835;-39
2023/01/09 05:04:06;;;;;;;;;;;;;;;;;;4972134;28;1588;-40
2023/01/09 05:06:34;;;;;;;;;;;;;;;;;;4972406;28;2039;-39
2023/01/09 05:09:01;;;;;;;;;;;;;;;;;;4972446;28;1822;-39
2023/01/09 05:11:28;;;;;;;;;;;;;;;;;;4972378;28;2025;-39
2023/01/09 05:13:55;;;;;;;;;;;;;;;;;;4972506;28;1747;-40
2023/01/09 05:16:22;;;;;;;;;;;;;;;;;;4972276;28;2146;-39
2023/01/09 05:18:55;;;;;;;;;;;;;;;;;;4972482;28;2034;-40
2023/01/09 05:21:26;;;;;;;;;;;;;;;;;;4972143;28;1799;-39
2023/01/09 05:23:53;;;;;;;;;;;;;;;;;;4972188;28;1952;-39
2023/01/09 05:26:23;;;;;;;;;;;;;;;;;;4972213;28;1971;-39
2023/01/09 05:28:51;;;;;;;;;;;;;;;;;;4975479;28;2157;-39
2023/01/09 05:31:19;;;;;;;;;;;;;;;;;;4976415;28;1886;-39
2023/01/09 05:33:46;;;;;;;;;;;;;;;;;;4976465;28;2157;-39
2023/01/09 05:36:14;;;;;;;;;;;;;;;;;;4976498;28;1670;-39
2023/01/09 05:38:44;;;;;;;;;;;;;;;;;;4976265;28;1273;-39
2023/01/09 05:41:11;;;;;;;;;;;;;;;;;;4976132;28;2003;-39
2023/01/09 05:43:38;;;;;;;;;;;;;;;;;;4975802;28;1933;-40
2023/01/09 05:46:05;;;;;;;;;;;;;;;;;;4975849;28;1970;-40
2023/01/09 05:48:32;;;;;;;;;;;;;;;;;;4974612;28;1773;-39
2023/01/09 05:50:59;;;;;;;;;;;;;;;;;;4976066;28;1885;-39
2023/01/09 05:53:26;;;;;;;;;;;;;;;;;;4975934;28;1905;-39
2023/01/09 05:55:53;;;;;;;;;;;;;;;;;;4975837;28;1984;-39
2023/01/09 05:58:21;;;;;;;;;;;;;;;;;;4975876;28;2353;-38
2023/01/09 06:00:48;;;;;;;;;;;;;;;;;;4976072;28;1799;-39
2023/01/09 06:03:15;;;;;;;;;;;;;;;;;;4974488;28;1644;-39
2023/01/09 06:05:42;;;;;;;;;;;;;;;;;;4975527;28;2252;-39
2023/01/09 06:08:10;;;;;;;;;;;;;;;;;;4975595;28;1622;-40
2023/01/09 06:10:37;;;;;;;;;;;;;;;;;;4975082;28;1837;-39
2023/01/09 06:13:04;;;;;;;;;;;;;;;;;;4975591;28;2084;-39
2023/01/09 06:15:31;;;;;;;;;;;;;;;;;;4975525;28;1352;-39
2023/01/09 06:17:58;;;;;;;;;;;;;;;;;;4975552;28;2179;-39
2023/01/09 06:20:25;;;;;;;;;;;;;;;;;;4975590;28;2134;-40
2023/01/09 06:22:52;;;;;;;;;;;;;;;;;;4975457;28;2026;-39
2023/01/09 06:25:20;;;;;;;;;;;;;;;;;;4975449;28;2011;-40
2023/01/09 06:27:48;;;;;;;;;;;;;;;;;;4975461;28;1847;-39
2023/01/09 06:30:15;;;;;;;;;;;;;;;;;;4975445;28;2278;-39
2023/01/09 06:32:42;;;;;;;;;;;;;;;;;;4975070;28;1931;-39
2023/01/09 06:35:10;;;;;;;;;;;;;;;;;;4975082;28;1688;-39
2023/01/09 06:37:37;;;;;;;;;;;;;;;;;;4974928;28;1821;-39
2023/01/09 06:40:05;;;;;;;;;;;;;;;;;;4974279;28;2121;-39
2023/01/09 06:42:32;;;;;;;;;;;;;;;;;;4974940;28;2228;-39
2023/01/09 06:44:59;;;;;;;;;;;;;;;;;;4975031;28;2077;-40
2023/01/09 06:47:27;;;;;;;;;;;;;;;;;;4974619;28;2064;-39
2023/01/09 06:49:56;;;;;;;;;;;;;;;;;;4974747;28;2363;-39
2023/01/09 06:52:24;;;;;;;;;;;;;;;;;;4974706;28;1604;-38
2023/01/09 06:54:51;;;;;;;;;;;;;;;;;;4974776;28;2136;-39
2023/01/09 06:57:18;;;;;;;;;;;;;;;;;;4975007;28;1864;-39
2023/01/09 06:59:45;;;;;;;;;;;;;;;;;;4974608;28;1938;-39
2023/01/09 07:02:19;;;;;;;;;;;;;;;;;;4974745;28;2109;-38
2023/01/09 07:04:46;;;;;;;;;;;;;;;;;;4974336;28;1911;-40
2023/01/09 07:07:13;;;;;;;;;;;;;;;;;;4974606;28;1979;-39
2023/01/09 07:09:40;;;;;;;;;;;;;;;;;;4974778;28;2157;-40
2023/01/09 07:12:08;;;;;;;;;;;;;;;;;;4974413;28;2165;-40
2023/01/09 07:14:35;;;;;;;;;;;;;;;;;;4974570;28;1972;-40
2023/01/09 07:17:03;;;;;;;;;;;;;;;;;;4974189;28;2133;-39
2023/01/09 07:19:31;;;;;;;;;;;;;;;;;;4974391;28;1999;-40
2023/01/09 07:21:58;;;;;;;;;;;;;;;;;;4974266;28;1533;-38
2023/01/09 07:24:28;;;;;;;;;;;;;;;;;;4974133;28;2153;-39
2023/01/09 07:26:55;;;;;;;;;;;;;;;;;;4974270;28;1983;-39
2023/01/09 07:29:23;;;;;;;;;;;;;;;;;;4974220;28;1962;-39
2023/01/09 07:31:50;;;;;;;;;;;;;;;;;;4974120;28;2048;-39
2023/01/09 07:34:17;;;;;;;;;;;;;;;;;;4973993;28;1851;-38
2023/01/09 07:36:45;;;;;;;;;;;;;;;;;;4974055;28;1300;-40
2023/01/09 07:39:18;;;;;;;;;;;;;;;;;;4974064;28;1931;-39
2023/01/09 07:41:45;;;;;;;;;;;;;;;;;;4973881;28;2082;-39
2023/01/09 07:44:13;;;;;;;;;;;;;;;;;;4973544;28;2022;-39
2023/01/09 07:46:41;;;;;;;;;;;;;;;;;;4973707;28;1983;-39
2023/01/09 07:49:08;;;;;;;;;;;;;;;;;;4973927;28;1869;-39
2023/01/09 07:51:38;;;;;;;;;;;;;;;;;;4983609;28;1403;-38
2023/01/09 07:54:05;;;;;;;;;;;;;;;;;;4993183;28;2051;-41
2023/01/09 07:56:32;;;;;;;;;;;;;;;;;;4993080;28;2044;-39
2023/01/09 07:58:59;;;;;;;;;;;;;;;;;;4992811;28;1613;-39
2023/01/09 08:01:26;;;;;;;;;;;;;;;;;;4993255;28;2223;-39
2023/01/09 08:03:53;;;;;;;;;;;;;;;;;;4993200;28;1960;-39
2023/01/09 08:06:21;;;;;;;;;;;;;;;;;;4992870;28;2010;-39
2023/01/09 08:08:48;;;;;;;;;;;;;;;;;;4992806;28;1923;-39
2023/01/09 08:11:16;;;;;;;;;;;;;;;;;;4992517;28;2218;-39
2023/01/09 08:13:43;;;;;;;;;;;;;;;;;;4992835;28;1936;-39
2023/01/09 08:16:10;;;;;;;;;;;;;;;;;;4992986;28;1729;-38
2023/01/09 08:18:37;;;;;;;;;;;;;;;;;;4992694;28;2003;-38
2023/01/09 08:21:05;;;;;;;;;;;;;;;;;;4992765;28;1736;-40
2023/01/09 08:23:32;;;;;;;;;;;;;;;;;;4992939;28;2216;-40
2023/01/09 08:25:59;;;;;;;;;;;;;;;;;;4985451;28;2097;-40
2023/01/09 08:28:26;;;;;;;;;;;;;;;;;;4973325;28;2099;-39
2023/01/09 08:30:53;;;;;;;;;;;;;;;;;;4955946;28;1929;-40
2023/01/09 08:33:21;;;;;;;;;;;;;;;;;;4973157;28;2053;-39
2023/01/09 08:35:48;;;;;;;;;;;;;;;;;;4972761;28;1973;-39
2023/01/09 08:38:18;;;;;;;;;;;;;;;;;;4972851;28;2025;-44
2023/01/09 08:40:46;;;;;;;;;;;;;;;;;;4972683;28;2055;-39
2023/01/09 08:48:47;;;;;;;;;;;;;;;;;;4972639;28;1958;-39
2023/01/09 08:51:14;;;;;;;;;;;;;;;;;;4973138;28;1810;-40
2023/01/09 08:53:41;;;;;;;;;;;;;;;;;;4972718;28;2172;-39
2023/01/09 08:56:09;;;;;;;;;;;;;;;;;;4978119;28;9676;-39
2023/01/09 08:58:36;;;;;;;;;;;;;;;;;;4991920;28;1876;-40
2023/01/09 09:01:04;;;;;;;;;;;;;;;;;;4991995;28;1932;-39
2023/01/09 09:03:31;;;;;;;;;;;;;;;;;;4991216;28;1912;-40
2023/01/09 09:05:58;;;;;;;;;;;;;;;;;;4991959;28;1995;-39
2023/01/09 09:08:25;;;;;;;;;;;;;;;;;;4992056;28;1989;-39
2023/01/09 09:10:52;;;;;;;;;;;;;;;;;;4991582;28;1914;-40
2023/01/09 09:13:20;;;;;;;;;;;;;;;;;;4991928;28;1937;-39
2023/01/09 09:15:47;;;;;;;;;;;;;;;;;;4991884;28;1364;-39
2023/01/09 09:18:15;;;;;;;;;;;;;;;;;;4974228;28;2203;-39
2023/01/09 09:20:42;;;;;;;;;;;;;;;;;;4991782;28;2050;-39
2023/01/09 09:23:09;;;;;;;;;;;;;;;;;;4991678;28;2408;-40
2023/01/09 09:25:37;;;;;;;;;;;;;;;;;;4991654;28;2023;-40
2023/01/09 09:28:04;;;;;;;;;;;;;;;;;;4991519;28;2175;-40
2023/01/09 09:30:32;;;;;;;;;;;;;;;;;;4991631;28;2053;-39
2023/01/09 09:33:01;;;;;;;;;;;;;;;;;;4991901;28;2002;-39
2023/01/09 09:35:29;;;;;;;;;;;;;;;;;;4991801;28;2164;-40
2023/01/09 09:37:58;;;;;;;;;;;;;;;;;;4991774;28;2371;-39
2023/01/09 09:40:36;;;;;;;;;;;;;;;;;;4991686;28;1517;-40
2023/01/09 09:46:04;;;;;;;;;;;;;;;;;;4952865;28;1996;-40
2023/01/09 09:48:36;;;;;;;;;;;;;;;;;;4953136;28;2006;-44
2023/01/09 09:51:03;;;;;;;;;;;;;;;;;;4952966;28;1925;-39
2023/01/09 09:53:30;;;;;;;;;;;;;;;;;;4952888;28;1852;-39
2023/01/09 09:55:57;;;;;;;;;;;;;;;;;;4952774;28;1891;-43
2023/01/09 09:58:26;;;;;;;;;;;;;;;;;;4952873;28;2629;-40
2023/01/09 10:00:57;;;;;;;;;;;;;;;;;;4952804;28;2014;-39
2023/01/09 10:03:27;;;;;;;;;;;;;;;;;;4952731;28;2085;-40
2023/01/09 10:06:01;;;;;;;;;;;;;;;;;;4952567;28;1933;-40
2023/01/09 10:08:47;;;;;;;;;;;;;;;;;;4952650;28;1946;-40
2023/01/09 10:11:37;;;;;;;;;;;;;;;;;;4952559;29;2021;-40
2023/01/09 10:14:05;;;;;;;;;;;;;;;;;;4951732;28;1839;-40
2023/01/09 10:16:44;;;;;;;;;;;;;;;;;;4956287;28;1968;-40
2023/01/09 10:19:15;;;;;;;;;;;;;;;;;;4956182;28;2016;-40
2023/01/09 10:21:42;;;;;;;;;;;;;;;;;;4956106;28;2004;-39
2023/01/09 10:24:19;;;;;;;;;;;;;;;;;;4956204;28;2206;-40
2023/01/09 10:26:49;;;;;;;;;;;;;;;;;;4955916;28;1973;-40
2023/01/09 10:29:31;;;;;;;;;;;;;;;;;;4955932;28;1476;-39
2023/01/09 10:32:15;;;;;;;;;;;;;;;;;;4956035;28;2228;-39
2023/01/09 10:34:53;;;;;;;;;;;;;;;;;;4955797;28;1625;-39
2023/01/09 10:37:27;;;;;;;;;;;;;;;;;;4969338;28;1847;-40
2023/01/09 10:40:12;;;;;;;;;;;;;;;;;;4974959;28;2323;-39
2023/01/09 10:42:50;;;;;;;;;;;;;;;;;;4974997;28;1869;-39
2023/01/09 10:45:21;;;;;;;;;;;;;;;;;;4986450;28;1949;-40
2023/01/09 10:47:49;;;;;;;;;;;;;;;;;;4994146;28;1907;-40
2023/01/09 10:50:36;;;;;;;;;;;;;;;;;;4992726;28;1969;-40
2023/01/09 10:53:19;;;;;;;;;;;;;;;;;;4994176;28;2324;-40
2023/01/09 10:55:47;;;;;;;;;;;;;;;;;;4994168;28;1956;-40
2023/01/09 10:58:19;;;;;;;;;;;;;;;;;;4994058;28;1894;-39
2023/01/09 11:00:47;;;;;;;;;;;;;;;;;;4994342;28;2083;-39
2023/01/09 11:03:16;;;;;;;;;;;;;;;;;;4994164;28;1839;-40
2023/01/09 11:05:47;;;;;;;;;;;;;;;;;;4993976;28;1647;-39
2023/01/09 11:08:25;;;;;;;;;;;;;;;;;;4993989;28;2062;-40
2023/01/09 11:10:57;;;;;;;;;;;;;;;;;;4993636;28;2010;-39
2023/01/09 11:13:28;;;;;;;;;;;;;;;;;;4993927;28;1972;-39
2023/01/09 11:16:04;;;;;;;;;;;;;;;;;;4993787;28;1685;-39
2023/01/09 11:18:33;;;;;;;;;;;;;;;;;;4993966;28;1888;-40
2023/01/09 11:21:12;;;;;;;;;;;;;;;;;;4993630;28;1987;-39
2023/01/09 11:23:39;;;;;;;;;;;;;;;;;;4993541;28;1945;-39
2023/01/09 11:26:19;;;;;;;;;;;;;;;;;;4993089;28;2106;-40
2023/01/09 11:29:03;;;;;;;;;;;;;;;;;;4993683;28;1907;-40
2023/01/09 11:31:30;;;;;;;;;;;;;;;;;;4993447;28;2336;-39
2023/01/09 11:33:57;;;;;;;;;;;;;;;;;;4993465;28;1854;-41
2023/01/09 11:36:24;;;;;;;;;;;;;;;;;;4993588;28;1886;-40
2023/01/09 11:38:53;;;;;;;;;;;;;;;;;;4993525;28;2360;-39
2023/01/09 11:41:22;;;;;;;;;;;;;;;;;;4993308;28;2307;-40
2023/01/09 11:43:50;;;;;;;;;;;;;;;;;;4993197;28;2015;-39
2023/01/09 11:46:32;;;;;;;;;;;;;;;;;;4994536;28;2221;-39
2023/01/09 11:49:00;;;;;;;;;;;;;;;;;;4993372;28;1844;-40
2023/01/09 11:51:29;;;;;;;;;;;;;;;;;;4993073;28;2182;-39
2023/01/09 11:54:11;;;;;;;;;;;;;;;;;;4993134;28;1963;-39
2023/01/09 11:56:38;;;;;;;;;;;;;;;;;;4993128;28;2012;-40
2023/01/09 11:59:13;;;;;;;;;;;;;;;;;;4992840;28;2042;-40
2023/01/09 12:01:43;;;;;;;;;;;;;;;;;;4993060;28;1991;-40
2023/01/09 12:04:13;;;;;;;;;;;;;;;;;;4993168;28;2008;-40
2023/01/09 12:06:59;;;;;;;;;;;;;;;;;;4992988;28;2164;-39
2023/01/09 12:09:46;;;;;;;;;;;;;;;;;;4992809;28;1745;-39
2023/01/09 12:12:20;;;;;;;;;;;;;;;;;;4992775;28;2074;-39
2023/01/09 12:14:59;;;;;;;;;;;;;;;;;;4992515;28;1907;-39
2023/01/09 12:17:45;;;;;;;;;;;;;;;;;;4992696;28;1994;-40
2023/01/09 12:20:12;;;;;;;;;;;;;;;;;;4992793;28;2012;-40
2023/01/09 12:22:45;;;;;;;;;;;;;;;;;;4992819;28;1783;-40
2023/01/09 12:25:15;;;;;;;;;;;;;;;;;;4991242;28;2370;-40
2023/01/09 12:27:56;;;;;;;;;;;;;;;;;;4992517;28;1974;-39
2023/01/09 12:30:25;;;;;;;;;;;;;;;;;;4992399;28;1988;-39
2023/01/09 12:33:01;;;;;;;;;;;;;;;;;;4992457;28;1895;-40
2023/01/09 12:35:43;;;;;;;;;;;;;;;;;;4992343;28;2005;-39
2023/01/09 12:38:22;;;;;;;;;;;;;;;;;;4972103;28;1737;-38
2023/01/09 12:41:07;;;;;;;;;;;;;;;;;;4973014;28;1937;-40
2023/01/09 12:43:44;;;;;;;;;;;;;;;;;;4972612;28;1965;-39
2023/01/09 12:46:19;;;;;;;;;;;;;;;;;;4972998;28;1940;-40
2023/01/09 12:49:01;;;;;;;;;;;;;;;;;;4972645;28;1903;-39
2023/01/09 12:51:28;;;;;;;;;;;;;;;;;;4972830;28;1585;-39
2023/01/09 12:54:02;;;;;;;;;;;;;;;;;;4972514;28;2259;-39
2023/01/09 12:56:49;;;;;;;;;;;;;;;;;;4972546;28;1749;-40
2023/01/09 12:59:29;;;;;;;;;;;;;;;;;;4972776;28;2019;-39
2023/01/09 13:02:19;;;;;;;;;;;;;;;;;;4972451;28;1925;-39
2023/01/09 13:05:00;;;;;;;;;;;;;;;;;;4964917;28;2153;-39
2023/01/09 13:07:34;;;;;;;;;;;;;;;;;;4972257;28;1979;-39
2023/01/09 13:10:19;;;;;;;;;;;;;;;;;;4972354;28;1510;-38
2023/01/09 13:12:48;;;;;;;;;;;;;;;;;;4972395;28;1798;-39
2023/01/09 13:15:25;;;;;;;;;;;;;;;;;;4972653;28;1869;-40
2023/01/09 13:17:54;;;;;;;;;;;;;;;;;;4972324;28;1950;-39
2023/01/09 13:20:26;;;;;;;;;;;;;;;;;;4972435;28;2163;-39
2023/01/09 13:22:54;;;;;;;;;;;;;;;;;;4972248;28;2118;-39
2023/01/09 13:25:40;;;;;;;;;;;;;;;;;;4972253;28;1934;-39
2023/01/09 13:28:12;;;;;;;;;;;;;;;;;;4972066;28;2011;-40
2023/01/09 13:30:45;;;;;;;;;;;;;;;;;;4972154;28;2072;-39
2023/01/09 13:33:20;;;;;;;;;;;;;;;;;;4972238;28;2178;-39
2023/01/09 13:35:56;;;;;;;;;;;;;;;;;;4973679;28;2293;-39
2023/01/09 13:38:24;;;;;;;;;;;;;;;;;;4991348;28;1905;-39
2023/01/09 13:42:34;;;;;;;;;;;;;;;;;;4991488;28;2123;-40
2023/01/09 13:43:57;;;;;;;;;;;;;;;;;;4991402;28;1931;-39
2023/01/09 13:46:43;;;;;;;;;;;;;;;;;;4991456;28;2179;-39
2023/01/09 13:49:32;;;;;;;;;;;;;;;;;;4993299;28;1954;-39
2023/01/09 13:52:00;;;;;;;;;;;;;;;;;;4995300;28;2247;-39
2023/01/09 13:54:47;;;;;;;;;;;;;;;;;;4995447;28;2035;-39
2023/01/09 13:57:17;;;;;;;;;;;;;;;;;;4985406;28;2052;-38
2023/01/09 13:59:46;;;;;;;;;;;;;;;;;;4995482;28;1562;-39
2023/01/09 14:02:33;;;;;;;;;;;;;;;;;;4995235;28;1942;-40
2023/01/09 14:05:02;;;;;;;;;;;;;;;;;;4974781;28;2004;-40
2023/01/09 14:07:33;;;;;;;;;;;;;;;;;;4994934;28;2155;-40
2023/01/09 14:10:02;;;;;;;;;;;;;;;;;;4995075;28;1910;-39
2023/01/09 14:12:31;;;;;;;;;;;;;;;;;;4994983;28;1778;-39
2023/01/09 14:15:00;;;;;;;;;;;;;;;;;;4995178;28;1833;-39
2023/01/09 14:17:33;;;;;;;;;;;;;;;;;;4994983;28;1970;-39
2023/01/09 14:20:02;;;;;;;;;;;;;;;;;;4994975;28;2374;-39
2023/01/09 14:22:31;;;;;;;;;;;;;;;;;;4994577;28;2048;-40
2023/01/09 14:25:08;;;;;;;;;;;;;;;;;;4994757;28;1906;-39
2023/01/09 14:27:50;;;;;;;;;;;;;;;;;;4994712;28;1905;-39
2023/01/09 14:30:37;;;;;;;;;;;;;;;;;;4995098;28;2142;-39
2023/01/09 14:33:17;;;;;;;;;;;;;;;;;;4994616;28;1808;-40
2023/01/09 14:35:47;;;;;;;;;;;;;;;;;;4994635;28;1844;-39
2023/01/09 14:38:28;;;;;;;;;;;;;;;;;;4994596;28;1948;-40
2023/01/09 14:41:01;;;;;;;;;;;;;;;;;;4994606;28;1933;-40
2023/01/09 14:43:38;;;;;;;;;;;;;;;;;;4994301;28;2042;-39
2023/01/09 14:46:10;;;;;;;;;;;;;;;;;;4994500;28;1604;-40
2023/01/09 14:48:41;;;;;;;;;;;;;;;;;;4994484;28;1910;-39
2023/01/09 14:51:13;;;;;;;;;;;;;;;;;;4977118;28;1847;-39
2023/01/09 14:53:41;;;;;;;;;;;;;;;;;;4993907;28;1922;-39
2023/01/09 14:56:23;;;;;;;;;;;;;;;;;;4994353;28;1968;-39
2023/01/09 14:59:01;;;;;;;;;;;;;;;;;;4994301;28;1971;-40
2023/01/09 15:01:31;;;;;;;;;;;;;;;;;;4993197;28;2198;-39
2023/01/09 15:04:10;;;;;;;;;;;;;;;;;;4994133;28;1581;-40
2023/01/09 15:06:42;;;;;;;;;;;;;;;;;;4994035;28;1878;-40
2023/01/09 15:09:12;;;;;;;;;;;;;;;;;;4994010;28;2125;-40
2023/01/09 15:11:39;;;;;;;;;;;;;;;;;;4994178;28;2048;-40
2023/01/09 15:14:09;;;;;;;;;;;;;;;;;;4993276;28;1910;-41
2023/01/09 15:16:36;;;;;;;;;;;;;;;;;;4993413;28;2204;-40
2023/01/09 15:19:06;;;;;;;;;;;;;;;;;;4992701;28;2072;-39
2023/01/09 15:21:33;;;;;;;;;;;;;;;;;;4993750;28;2070;-39
2023/01/09 15:24:10;;;;;;;;;;;;;;;;;;4993909;28;1947;-39
2023/01/09 15:26:38;;;;;;;;;;;;;;;;;;4993615;28;2212;-39
2023/01/09 15:29:16;;;;;;;;;;;;;;;;;;4993620;28;2054;-39
2023/01/09 15:31:45;;;;;;;;;;;;;;;;;;4993740;28;1919;-40
2023/01/09 15:34:16;;;;;;;;;;;;;;;;;;4993524;28;1970;-39
2023/01/09 15:36:43;;;;;;;;;;;;;;;;;;4992744;28;2055;-40
2023/01/09 15:39:14;;;;;;;;;;;;;;;;;;4991501;28;1659;-40
2023/01/09 15:44:35;;;;;;;;;;;;;;;;;;4991451;28;1877;-40
2023/01/09 15:47:04;;;;;;;;;;;;;;;;;;4991236;28;2036;-40
2023/01/09 15:49:32;;;;;;;;;;;;;;;;;;4990116;28;1983;-40
2023/01/09 15:52:00;;;;;;;;;;;;;;;;;;4991515;28;1374;-40
2023/01/09 15:54:29;;;;;;;;;;;;;;;;;;4992870;28;2202;-40
2023/01/09 15:57:14;;;;;;;;;;;;;;;;;;4993235;28;1958;-40
2023/01/09 15:59:42;;;;;;;;;;;;;;;;;;4993000;28;1643;-39
2023/01/09 16:04:56;;;;;;;;;;;;;;;;;;4993186;28;1772;-39
2023/01/09 16:07:23;;;;;;;;;;;;;;;;;;4993199;28;2110;-40
2023/01/09 16:09:53;;;;;;;;;;;;;;;;;;4992799;28;2180;-40
2023/01/09 16:12:21;;;;;;;;;;;;;;;;;;4992798;28;1959;-40
2023/01/09 16:14:53;;;;;;;;;;;;;;;;;;4992785;28;1918;-40
2023/01/09 16:17:25;;;;;;;;;;;;;;;;;;4992546;28;2102;-40
2023/01/09 16:19:54;;;;;;;;;;;;;;;;;;4975127;28;2437;-40
2023/01/09 16:22:22;;;;;;;;;;;;;;;;;;4992791;28;2111;-40
2023/01/09 16:24:53;;;;;;;;;;;;;;;;;;4992577;28;1537;-40
2023/01/09 16:27:22;;;;;;;;;;;;;;;;;;4992312;28;1908;-40
2023/01/09 16:29:53;;;;;;;;;;;;;;;;;;4992618;28;2011;-39
2023/01/09 16:32:25;;;;;;;;;;;;;;;;;;4992811;28;2153;-39
2023/01/09 16:34:53;;;;;;;;;;;;;;;;;;4992615;28;1892;-39
2023/01/09 16:37:22;;;;;;;;;;;;;;;;;;4992261;28;2021;-40
2023/01/09 16:40:07;;;;;;;;;;;;;;;;;;4992114;28;1489;-39
2023/01/09 16:45:23;;;;;;;;;;;;;;;;;;4992173;28;2110;-40
2023/01/09 16:47:51;;;;;;;;;;;;;;;;;;4992266;28;1973;-40
2023/01/09 16:50:18;;;;;;;;;;;;;;;;;;4992283;28;2034;-40
2023/01/09 16:52:45;;;;;;;;;;;;;;;;;;4991029;28;1787;-39
2023/01/09 16:55:15;;;;;;;;;;;;;;;;;;4992268;28;1928;-40
2023/01/09 16:57:42;;;;;;;;;;;;;;;;;;4992202;28;1911;-40
2023/01/09 17:00:16;;;;;;;;;;;;;;;;;;4992067;28;2011;-39
2023/01/09 17:02:44;;;;;;;;;;;;;;;;;;4990757;28;1991;-40
2023/01/09 17:05:11;;;;;;;;;;;;;;;;;;4991939;28;2026;-40
2023/01/09 17:07:38;;;;;;;;;;;;;;;;;;4992046;28;1912;-40
2023/01/09 17:10:06;;;;;;;;;;;;;;;;;;4991924;28;1832;-40
2023/01/09 17:12:33;;;;;;;;;;;;;;;;;;4992030;28;2117;-39
2023/01/09 17:15:01;;;;;;;;;;;;;;;;;;4992094;28;1654;-40
2023/01/09 17:17:28;;;;;;;;;;;;;;;;;;4991795;28;1922;-39
2023/01/09 17:19:56;;;;;;;;;;;;;;;;;;4992049;28;1974;-39
2023/01/09 17:22:23;;;;;;;;;;;;;;;;;;4991878;28;1730;-39
2023/01/09 17:30:21;;;;;;;;;;;;;;;;;;4991765;28;1939;-40
2023/01/09 17:32:49;;;;;;;;;;;;;;;;;;4990473;28;1871;-40
2023/01/09 17:35:16;;;;;;;;;;;;;;;;;;4991934;28;1931;-40
2023/01/09 17:37:43;;;;;;;;;;;;;;;;;;4991545;28;1734;-40
2023/01/09 17:40:21;;;;;;;;;;;;;;;;;;4991593;28;1987;-40
2023/01/09 17:42:48;;;;;;;;;;;;;;;;;;4991564;28;2026;-38
2023/01/09 17:45:15;;;;;;;;;;;;;;;;;;4991400;28;1991;-39
2023/01/09 17:47:43;;;;;;;;;;;;;;;;;;4991325;28;1908;-39
2023/01/09 17:50:19;;;;;;;;;;;;;;;;;;4991471;28;1722;-39
2023/01/09 17:52:47;;;;;;;;;;;;;;;;;;4991189;28;1790;-40